createdAt,value
2022-09-09T00:03:01.231Z,2.37
2022-09-09T00:06:00.846Z,1.90
2022-09-09T00:08:59.252Z,2.37
2022-09-09T00:11:53.445Z,2.35
2022-09-09T00:14:56.076Z,1.80
2022-09-09T00:17:49.771Z,2.08
2022-09-09T00:20:55.017Z,2.20
2022-09-09T00:23:45.905Z,2.10
2022-09-09T00:26:38.773Z,2.20
2022-09-09T00:29:28.264Z,2.00
2022-09-09T00:32:19.611Z,2.12
2022-09-09T00:35:18.944Z,2.60
2022-09-09T00:38:18.049Z,2.40
2022-09-09T00:41:12.285Z,2.22
2022-09-09T00:44:03.369Z,2.75
2022-09-09T00:47:24.008Z,2.25
2022-09-09T00:50:36.508Z,2.28
2022-09-09T00:53:22.689Z,2.33
2022-09-09T00:56:20.223Z,2.45
2022-09-09T00:59:13.564Z,2.58
2022-09-09T01:02:00.047Z,2.40
2022-09-09T01:04:46.721Z,2.30
2022-09-09T01:07:33.422Z,2.40
2022-09-09T01:10:37.111Z,2.25
2022-09-09T01:13:31.465Z,2.80
2022-09-09T01:16:18.702Z,2.67
2022-09-09T01:19:08.455Z,2.40
2022-09-09T01:22:19.938Z,2.33
2022-09-09T01:25:19.936Z,2.60
2022-09-09T01:28:11.589Z,2.57
2022-09-09T01:30:58.711Z,2.67
2022-09-09T01:33:45.634Z,3.15
2022-09-09T01:36:58.088Z,2.90
2022-09-09T01:39:45.930Z,2.97
2022-09-09T01:42:33.139Z,2.85
2022-09-09T01:45:19.809Z,3.17
2022-09-09T01:48:05.921Z,3.00
2022-09-09T01:50:52.445Z,3.30
2022-09-09T01:53:40.718Z,3.10
2022-09-09T01:56:27.589Z,2.92
2022-09-09T01:59:26.117Z,3.20
2022-09-09T02:02:19.138Z,3.45
2022-09-09T02:05:41.173Z,3.22
2022-09-09T02:08:44.298Z,3.20
2022-09-09T02:11:32.145Z,3.58
2022-09-09T02:14:24.504Z,3.40
2022-09-09T02:17:12.289Z,3.22
2022-09-09T02:20:05.435Z,3.33
2022-09-09T02:22:54.442Z,3.78
2022-09-09T02:25:42.903Z,3.12
2022-09-09T02:28:32.951Z,3.60
2022-09-09T02:31:21.470Z,3.58
2022-09-09T02:34:11.863Z,2.65
2022-09-09T02:36:58.509Z,4.07
2022-09-09T02:39:45.514Z,3.47
2022-09-09T02:42:32.134Z,3.20
2022-09-09T02:45:20.726Z,3.30
2022-09-09T02:48:24.213Z,4.05
2022-09-09T02:51:25.060Z,3.40
2022-09-09T02:54:32.915Z,3.50
2022-09-09T02:57:25.223Z,3.58
2022-09-09T03:00:12.517Z,3.62
2022-09-09T03:02:58.748Z,3.72
2022-09-09T03:05:45.680Z,3.35
2022-09-09T03:08:32.333Z,3.17
2022-09-09T03:11:18.655Z,4.05
2022-09-09T03:14:05.632Z,3.35
2022-09-09T03:16:52.987Z,3.62
2022-09-09T03:19:39.264Z,3.58
2022-09-09T03:22:26.443Z,3.28
2022-09-09T03:25:14.238Z,3.25
2022-09-09T03:28:00.523Z,3.40
2022-09-09T03:30:46.891Z,3.15
2022-09-09T03:33:33.712Z,3.53
2022-09-09T03:36:20.655Z,3.42
2022-09-09T03:39:07.123Z,3.47
2022-09-09T03:41:53.543Z,3.25
2022-09-09T03:44:40.915Z,4.20
2022-09-09T03:47:27.337Z,4.15
2022-09-09T03:50:14.263Z,4.18
2022-09-09T03:53:00.937Z,4.22
2022-09-09T03:55:53.702Z,4.07
2022-09-09T03:58:40.427Z,5.20
2022-09-09T04:01:27.093Z,5.62
2022-09-09T04:04:13.514Z,5.80
2022-09-09T04:07:00.243Z,5.53
2022-09-09T04:09:46.939Z,5.60
2022-09-09T04:12:33.633Z,5.25
2022-09-09T04:15:20.166Z,5.45
2022-09-09T04:18:07.157Z,5.18
2022-09-09T04:20:54.180Z,5.45
2022-09-09T04:23:40.952Z,6.10
2022-09-09T04:26:27.378Z,5.62
2022-09-09T04:29:13.505Z,5.50
2022-09-09T04:32:00.049Z,6.00
2022-09-09T04:34:46.840Z,6.40
2022-09-09T04:37:34.208Z,5.55
2022-09-09T04:40:20.500Z,6.43
2022-09-09T04:43:06.909Z,5.65
2022-09-09T04:45:53.477Z,5.45
2022-09-09T04:48:41.092Z,5.82
2022-09-09T04:51:27.772Z,6.20
2022-09-09T04:54:14.204Z,5.68
2022-09-09T04:57:00.518Z,5.20
2022-09-09T04:59:47.420Z,5.60
2022-09-09T05:02:34.398Z,5.72
2022-09-09T05:05:21.418Z,5.35
2022-09-09T05:08:09.554Z,6.05
2022-09-09T05:10:56.361Z,6.32
2022-09-09T05:13:42.364Z,6.53
2022-09-09T05:16:28.723Z,6.32
2022-09-09T05:19:15.337Z,5.47
2022-09-09T05:22:02.311Z,6.43
2022-09-09T05:24:51.845Z,6.37
2022-09-09T05:27:38.667Z,6.60
2022-09-09T05:30:25.752Z,6.43
2022-09-09T05:33:12.564Z,6.30
2022-09-09T05:36:03.791Z,6.25
2022-09-09T05:38:51.212Z,5.62
2022-09-09T05:41:37.292Z,5.72
2022-09-09T05:44:26.046Z,5.80
2022-09-09T05:47:13.061Z,5.72
2022-09-09T05:49:59.276Z,5.53
2022-09-09T05:52:45.610Z,5.28
2022-09-09T05:55:32.554Z,5.50
2022-09-09T05:58:19.236Z,5.18
2022-09-09T06:01:13.110Z,5.47
2022-09-09T06:04:00.862Z,6.03
2022-09-09T06:06:47.410Z,5.20
2022-09-09T06:09:35.227Z,5.30
2022-09-09T06:12:21.910Z,5.07
2022-09-09T06:15:10.066Z,4.87
2022-09-09T06:17:56.736Z,5.22
2022-09-09T06:20:43.449Z,5.12
2022-09-09T06:23:29.778Z,5.30
2022-09-09T06:26:20.076Z,5.85
2022-09-09T06:29:07.614Z,5.75
2022-09-09T06:31:54.673Z,4.55
2022-09-09T06:34:41.041Z,4.28
2022-09-09T06:37:27.897Z,3.80
2022-09-09T06:40:14.021Z,4.18
2022-09-09T06:43:02.033Z,3.72
2022-09-09T06:46:01.028Z,3.65
2022-09-09T06:48:47.641Z,3.65
2022-09-09T06:51:36.526Z,3.40
2022-09-09T06:54:24.791Z,3.47
2022-09-09T06:57:36.783Z,3.80
2022-09-09T07:00:19.281Z,3.95
2022-09-09T07:03:07.117Z,3.03
2022-09-09T07:05:57.286Z,3.47
2022-09-09T07:08:51.770Z,3.10
2022-09-09T07:11:45.464Z,3.92
2022-09-09T07:14:32.188Z,3.05
2022-09-09T07:17:18.664Z,2.80
2022-09-09T07:20:05.539Z,3.28
2022-09-09T07:22:55.922Z,2.58
2022-09-09T07:25:46.556Z,3.37
2022-09-09T07:28:33.229Z,3.13
2022-09-09T07:31:22.126Z,2.80
2022-09-09T07:34:08.799Z,2.70
2022-09-09T07:36:55.270Z,2.78
2022-09-09T07:39:43.093Z,2.60
2022-09-09T07:42:29.610Z,2.15
2022-09-09T07:45:15.916Z,1.90
2022-09-09T07:48:02.917Z,1.85
2022-09-09T07:50:49.731Z,2.00
2022-09-09T07:53:37.423Z,1.52
2022-09-09T07:56:24.261Z,1.92
2022-09-09T07:59:11.351Z,1.85
2022-09-09T08:01:59.501Z,1.70
2022-09-09T08:04:47.373Z,1.60
2022-09-09T08:07:33.864Z,1.50
2022-09-09T08:10:20.368Z,1.40
2022-09-09T08:13:17.805Z,1.45
2022-09-09T08:16:10.375Z,1.20
2022-09-09T08:18:57.785Z,1.40
2022-09-09T08:21:45.606Z,1.40
2022-09-09T08:24:31.865Z,1.23
2022-09-09T08:27:18.336Z,1.30
2022-09-09T08:30:04.847Z,1.30
2022-09-09T08:32:53.876Z,1.10
2022-09-09T08:35:40.801Z,1.40
2022-09-09T08:38:27.219Z,1.10
2022-09-09T08:41:31.015Z,1.10
2022-09-09T08:44:37.120Z,0.90
2022-09-09T08:47:35.783Z,1.00
2022-09-09T08:50:25.708Z,1.10
2022-09-09T08:53:21.159Z,0.95
2022-09-09T08:56:17.366Z,1.08
2022-09-09T08:59:04.342Z,1.00
2022-09-09T09:02:04.744Z,1.23
2022-09-09T09:05:07.126Z,1.00
2022-09-09T09:08:21.121Z,0.90
2022-09-09T09:11:08.007Z,0.77
2022-09-09T09:13:59.972Z,0.70
2022-09-09T09:16:55.697Z,0.70
2022-09-09T09:19:44.252Z,0.75
2022-09-09T09:22:48.589Z,0.73
2022-09-09T09:25:40.837Z,0.70
2022-09-09T09:28:31.297Z,0.98
2022-09-09T09:31:19.391Z,0.73
2022-09-09T09:34:05.943Z,0.70
2022-09-09T09:36:57.856Z,0.60
2022-09-09T09:42:59.572Z,0.70
2022-09-09T09:45:55.324Z,0.60
2022-09-09T09:49:06.725Z,0.70
2022-09-09T09:51:53.594Z,0.60
2022-09-09T09:54:43.080Z,0.90
2022-09-09T09:57:32.976Z,0.70
2022-09-09T10:00:22.221Z,0.50
2022-09-09T10:03:23.325Z,0.80
2022-09-09T10:06:10.603Z,0.65
2022-09-09T10:08:56.872Z,0.43
2022-09-09T10:11:47.469Z,0.60
2022-09-09T10:14:59.957Z,0.73
2022-09-09T10:17:48.862Z,0.75
2022-09-09T10:20:41.741Z,0.57
2022-09-09T10:23:46.039Z,0.55
2022-09-09T10:26:50.975Z,0.43
2022-09-09T10:30:05.483Z,0.40
2022-09-09T10:36:21.126Z,0.40
2022-09-09T10:39:27.551Z,0.45
2022-09-09T10:42:14.428Z,0.70
2022-09-09T10:45:23.310Z,0.40
2022-09-09T10:48:28.861Z,0.60
2022-09-09T10:51:30.512Z,0.50
2022-09-09T10:54:31.181Z,0.50
2022-09-09T10:57:23.403Z,0.50
2022-09-09T11:00:28.498Z,0.60
2022-09-09T11:03:23.103Z,0.60
2022-09-09T11:06:20.870Z,0.50
2022-09-09T11:09:08.112Z,0.50
2022-09-09T11:11:58.487Z,0.60
2022-09-09T11:14:49.441Z,0.70
2022-09-09T11:17:43.840Z,0.70
2022-09-09T11:20:30.148Z,0.60
2022-09-09T11:23:25.135Z,0.68
2022-09-09T11:26:18.228Z,0.60
2022-09-09T11:29:11.400Z,0.60
2022-09-09T11:31:57.891Z,0.77
2022-09-09T11:35:07.044Z,0.60
2022-09-09T11:38:24.399Z,0.70
2022-09-09T11:41:11.172Z,0.70
2022-09-09T11:43:57.487Z,0.70
2022-09-09T11:46:53.109Z,0.70
2022-09-09T11:49:39.194Z,0.57
2022-09-09T11:52:37.961Z,0.55
2022-09-09T11:55:28.542Z,0.65
2022-09-09T11:58:19.868Z,0.60
2022-09-09T12:01:17.679Z,0.52
2022-09-09T12:04:07.107Z,0.50
2022-09-09T12:06:59.702Z,0.62
2022-09-09T12:10:21.961Z,0.80
2022-09-09T12:13:27.841Z,0.55
2022-09-09T12:16:39.596Z,0.70
2022-09-09T12:19:27.085Z,0.80
2022-09-09T12:22:35.837Z,0.60
2022-09-09T12:25:59.743Z,0.77
2022-09-09T12:29:24.343Z,0.60
2022-09-09T12:32:12.940Z,0.73
2022-09-09T12:35:29.030Z,0.80
2022-09-09T12:38:20.416Z,0.60
2022-09-09T12:41:07.061Z,0.60
2022-09-09T12:44:04.871Z,0.70
2022-09-09T12:46:52.413Z,0.80
2022-09-09T12:49:40.304Z,0.60
2022-09-09T12:52:31.609Z,0.55
2022-09-09T12:58:14.509Z,0.80
2022-09-09T13:01:05.776Z,0.90
2022-09-09T13:03:53.624Z,0.70
2022-09-09T13:06:39.885Z,0.70
2022-09-09T13:09:27.341Z,0.70
2022-09-09T13:12:19.848Z,0.80
2022-09-09T13:15:21.438Z,0.60
2022-09-09T13:18:12.583Z,0.73
2022-09-09T13:20:59.349Z,0.82
2022-09-09T13:23:50.625Z,0.60
2022-09-09T13:26:37.292Z,0.77
2022-09-09T13:29:23.259Z,0.70
2022-09-09T13:32:19.195Z,0.55
2022-09-09T13:35:07.577Z,0.70
2022-09-09T13:37:54.585Z,0.50
2022-09-09T13:40:40.604Z,0.60
2022-09-09T13:43:27.700Z,0.80
2022-09-09T13:46:41.319Z,0.88
2022-09-09T13:49:29.882Z,0.62
2022-09-09T13:52:19.801Z,0.60
2022-09-09T13:55:07.777Z,0.77
2022-09-09T13:58:02.209Z,0.60
2022-09-09T14:00:49.504Z,0.75
2022-09-09T14:03:36.033Z,0.70
2022-09-09T14:06:22.912Z,0.73
2022-09-09T14:09:12.704Z,0.62
2022-09-09T14:11:58.724Z,0.57
2022-09-09T14:14:45.322Z,0.68
2022-09-09T14:17:32.201Z,0.60
2022-09-09T14:20:18.739Z,0.50
2022-09-09T14:23:04.847Z,0.73
2022-09-09T14:25:52.110Z,0.55
2022-09-09T14:28:54.216Z,0.60
2022-09-09T14:31:41.692Z,0.70
2022-09-09T14:34:28.157Z,0.60
2022-09-09T14:37:14.381Z,0.77
2022-09-09T14:40:00.323Z,0.62
2022-09-09T14:42:46.565Z,0.77
2022-09-09T14:45:33.237Z,0.60
2022-09-09T14:48:25.865Z,0.62
2022-09-09T14:51:14.710Z,0.60
2022-09-09T14:54:01.054Z,0.82
2022-09-09T14:56:48.223Z,0.93
2022-09-09T14:59:35.457Z,0.93
2022-09-09T15:02:21.725Z,0.82
2022-09-09T15:05:08.374Z,0.60
2022-09-09T15:07:54.542Z,0.65
2022-09-09T15:10:40.965Z,0.60
2022-09-09T15:13:27.137Z,0.68
2022-09-09T15:16:19.117Z,0.60
2022-09-09T15:19:05.616Z,0.50
2022-09-09T15:21:52.498Z,0.60
2022-09-09T15:24:38.938Z,0.80
2022-09-09T15:27:25.304Z,0.80
2022-09-09T15:30:12.238Z,0.60
2022-09-09T15:32:58.473Z,0.77
2022-09-09T15:35:44.813Z,0.80
2022-09-09T15:38:32.486Z,0.70
2022-09-09T15:41:20.829Z,0.62
2022-09-09T15:44:07.239Z,0.77
2022-09-09T15:46:56.577Z,0.60
2022-09-09T15:49:43.368Z,0.70
2022-09-09T15:52:30.094Z,0.70
2022-09-09T15:55:16.562Z,1.00
2022-09-09T15:58:02.986Z,1.70
2022-09-09T16:00:49.314Z,1.65
2022-09-09T16:03:45.645Z,1.27
2022-09-09T16:06:31.830Z,0.90
2022-09-09T16:09:18.491Z,1.00
2022-09-09T16:12:08.900Z,0.90
2022-09-09T16:14:55.871Z,0.70
2022-09-09T16:17:41.934Z,0.90
2022-09-09T16:20:28.505Z,1.00
2022-09-09T16:23:15.027Z,0.95
2022-09-09T16:26:05.682Z,0.80
2022-09-09T16:28:52.203Z,1.00
2022-09-09T16:31:39.098Z,0.88
2022-09-09T16:34:26.263Z,0.82
2022-09-09T16:37:12.652Z,0.90
2022-09-09T16:39:58.634Z,1.10
2022-09-09T16:42:44.823Z,0.93
2022-09-09T16:45:31.155Z,1.00
2022-09-09T16:48:17.536Z,0.90
2022-09-09T16:51:08.264Z,1.70
2022-09-09T16:53:55.596Z,1.30
2022-09-09T16:56:43.374Z,1.25
2022-09-09T16:59:29.590Z,1.10
2022-09-09T17:02:15.949Z,1.37
2022-09-09T17:05:02.219Z,1.10
2022-09-09T17:07:48.457Z,1.27
2022-09-09T17:10:34.688Z,1.17
2022-09-09T17:13:21.123Z,1.10
2022-09-09T17:16:07.616Z,1.20
2022-09-09T17:18:55.421Z,1.33
2022-09-09T17:22:00.451Z,1.25
2022-09-09T17:24:48.974Z,1.20
2022-09-09T17:27:35.411Z,1.25
2022-09-09T17:30:21.128Z,1.00
2022-09-09T17:33:07.898Z,1.45
2022-09-09T17:35:53.920Z,1.30
2022-09-09T17:38:41.654Z,1.45
2022-09-09T17:41:38.804Z,1.87
2022-09-09T17:44:25.311Z,1.60
2022-09-09T17:47:11.729Z,1.30
2022-09-09T17:49:58.627Z,1.67
2022-09-09T17:52:45.701Z,1.48
2022-09-09T17:55:33.815Z,1.80
2022-09-09T17:58:19.887Z,1.60
2022-09-09T18:13:54.350Z,1.20
2022-09-09T18:16:41.114Z,1.98
2022-09-09T18:19:30.718Z,2.17
2022-09-09T18:22:19.845Z,2.72
2022-09-09T18:25:06.436Z,2.60
2022-09-09T18:27:54.785Z,2.67
2022-09-09T18:30:41.890Z,3.50
2022-09-09T18:33:29.521Z,3.40
2022-09-09T18:36:20.913Z,2.72
2022-09-09T18:39:08.751Z,2.12
2022-09-09T18:42:00.397Z,1.55
2022-09-09T18:44:46.915Z,1.87
2022-09-09T18:47:33.279Z,1.40
2022-09-09T18:50:19.473Z,1.67
2022-09-09T18:53:06.206Z,1.95
2022-09-09T18:55:59.275Z,2.22
2022-09-09T18:58:48.597Z,1.85
2022-09-09T19:01:36.072Z,1.62
2022-09-09T19:04:23.708Z,1.25
2022-09-09T19:07:11.408Z,1.08
2022-09-09T19:09:58.954Z,1.62
2022-09-09T19:12:45.338Z,0.98
2022-09-09T19:15:37.517Z,1.20
2022-09-09T19:18:24.959Z,1.73
2022-09-09T19:21:22.630Z,1.50
2022-09-09T19:24:22.395Z,1.70
2022-09-09T19:27:09.857Z,2.25
2022-09-09T19:29:57.987Z,1.92
2022-09-09T19:32:53.907Z,2.05
2022-09-09T19:35:41.811Z,1.92
2022-09-09T19:38:29.552Z,2.20
2022-09-09T19:41:23.290Z,2.22
2022-09-09T19:44:13.315Z,2.42
2022-09-09T19:47:00.842Z,2.10
2022-09-09T19:49:48.203Z,2.50
2022-09-09T19:52:37.272Z,1.75
2022-09-09T19:55:28.754Z,2.03
2022-09-09T20:01:11.467Z,1.62
2022-09-09T20:04:01.274Z,1.83
2022-09-09T20:06:51.412Z,2.35
2022-09-09T20:09:37.906Z,2.00
2022-09-09T20:12:24.298Z,1.73
2022-09-09T20:15:12.879Z,1.50
2022-09-09T20:18:00.389Z,1.85
2022-09-09T20:20:47.086Z,1.85
2022-09-09T20:23:33.789Z,1.67
2022-09-09T20:26:22.432Z,1.77
2022-09-09T20:29:15.719Z,1.77
2022-09-09T20:32:02.807Z,2.35
2022-09-09T20:34:49.008Z,2.40
2022-09-09T20:37:35.611Z,2.17
2022-09-09T20:40:22.359Z,1.95
2022-09-09T20:43:12.716Z,1.90
2022-09-09T20:46:02.473Z,2.15
2022-09-09T20:49:00.773Z,2.20
2022-09-09T20:51:50.500Z,2.05
2022-09-09T20:54:38.811Z,2.00
2022-09-09T20:57:24.855Z,1.73
2022-09-09T21:00:15.605Z,1.95
2022-09-09T21:03:02.382Z,2.12
2022-09-09T21:05:48.803Z,2.10
2022-09-09T21:08:35.545Z,2.30
2022-09-09T21:11:22.072Z,1.90
2022-09-09T21:14:09.001Z,1.40
2022-09-09T21:16:55.286Z,1.80
2022-09-09T21:19:41.250Z,1.80
2022-09-09T21:22:27.614Z,1.40
2022-09-09T21:25:13.802Z,1.42
2022-09-09T21:28:00.383Z,1.67
2022-09-09T21:30:50.940Z,1.80
2022-09-09T21:36:23.441Z,2.10
2022-09-09T21:39:10.258Z,1.60
2022-09-09T21:41:56.910Z,1.55
2022-09-09T21:44:42.944Z,1.70
2022-09-09T21:47:28.719Z,2.00
2022-09-09T21:50:17.161Z,1.95
2022-09-09T21:53:03.554Z,2.10
2022-09-09T21:55:49.847Z,1.85
2022-09-09T21:58:35.953Z,1.87
2022-09-09T22:01:24.932Z,1.65
2022-09-09T22:04:11.670Z,2.05
2022-09-09T22:06:57.680Z,1.98
2022-09-09T22:09:44.215Z,1.92
2022-09-09T22:12:31.005Z,1.85
2022-09-09T22:15:17.225Z,1.90
2022-09-09T22:18:04.043Z,1.80
2022-09-09T22:20:50.407Z,2.17
2022-09-09T22:23:36.883Z,1.98
2022-09-09T22:26:24.451Z,2.10
2022-09-09T22:29:11.232Z,2.00
2022-09-09T22:31:57.852Z,2.12
2022-09-09T22:34:43.925Z,2.20
2022-09-09T22:37:30.269Z,2.15
2022-09-09T22:40:16.592Z,2.65
2022-09-09T22:43:02.971Z,2.10
2022-09-09T22:45:50.153Z,2.85
2022-09-09T22:48:38.040Z,3.17
2022-09-09T22:51:24.265Z,2.58
2022-09-09T22:54:11.089Z,2.95
2022-09-09T22:56:57.262Z,3.00
2022-09-09T22:59:43.596Z,3.37
2022-09-09T23:02:29.719Z,4.12
2022-09-09T23:05:16.920Z,3.78
2022-09-09T23:08:03.102Z,3.80
2022-09-09T23:10:49.899Z,3.97
2022-09-09T23:13:41.499Z,3.95
2022-09-09T23:16:32.575Z,4.78
2022-09-09T23:19:19.259Z,3.80
2022-09-09T23:22:06.873Z,3.53
2022-09-09T23:24:54.073Z,3.75
2022-09-09T23:27:40.231Z,3.65
2022-09-09T23:30:26.663Z,4.03
2022-09-09T23:33:13.040Z,3.87
2022-09-09T23:36:05.032Z,3.80
2022-09-09T23:38:51.537Z,3.83
2022-09-09T23:41:38.132Z,5.10
2022-09-09T23:44:24.475Z,4.40
2022-09-09T23:47:10.363Z,4.22
2022-09-09T23:49:56.724Z,4.45
2022-09-09T23:52:44.141Z,4.47
2022-09-09T23:55:30.756Z,4.80
2022-09-09T23:58:16.638Z,5.80
